Aquilla, AL

3:56 AM CST on February 25, 2017 (GMT -0600)
Key | | Change Station

Elev 295 ft 32.33 °N, 88.75 °W | Updated 58 minutes ago

Overcast
Overcast
60 °F
Feels Like 60 °F
N
9
Wind Variable Wind from NW

Today
High -- | Low -- °F
--% Chance of Precip.
Yesterday
High -- | Low -- °F
Precip. -- in
Pressure 29.90 in
Visibility 10.0 miles
Clouds Mostly Cloudy 6500 ft
Overcast 9500 ft
Dew Point 45 °F
Humidity 57%
Rainfall 0.00 in
Snow Depth Not available.
6:24 AM 5:48 PM
Waning Crescent, 2% visible
METAR KMEI 250858Z AUTO 32008KT 10SM BKN065 OVC095 16/07 A2991 RMK AO2 RAB01E06 SLP125 P0000 60000 T01560072 51039
Pressure 29.90 in
Visibility 10.0 miles
Clouds Mostly Cloudy 6500 ft
Overcast 9500 ft
Dew Point 45 °F
Humidity 57%
Rainfall 0.00 in
Snow Depth Not available.
6:24 AM 5:48 PM
Waning Crescent, 2% visible
METAR KMEI 250858Z AUTO 32008KT 10SM BKN065 OVC095 16/07 A2991 RMK AO2 RAB01E06 SLP125 P0000 60000 T01560072 51039

Get Your Daily Forecast Email!

Thanks for signing up!

Be on the lookout for a verification email in your inbox.

You'll start receiving the daily forecast at 8 AM.

×

10-Day Weather Forecast

Almanac

Astronomy

Feb. 25, 2017 Rise Set
Actual Time
Civil Twilight
Nautical Twilight
Astronomical Twilight
Moon
Length of Visible Light
Length of Day
Tomorrow will be .
, % of the Moon is Illuminated

Today's Extremes

State Highs State Lows

Community

WunderPhotos

Upload Photos

1,962,540 photos uploaded!

WunderBlog® & News

Nearby

Air Quality

  Air Quality AQ Index Pollutant
Not available.

Snow Depth

Station Depth Elevation

Earthquake Activity

City Distance Mag. Time & Date
Minimum magnitude displayed is 2.5.

Coastal Water Temperatures

Place Temperature

Stations

Nearby Weather Stations

Station Location Temp. Windchill Dew Point Humidity Wind Precip. Elev Updated Type
                   

Watches & Warnings

There are currently no watches in effect.